PWSweather.com
Personal Weather Stations
Station Observations

ChardChardGB

Lat: 50.877408, Lon: -2.94964741

Elevation: 341

Station Type: WS3083

http://www.merriott-astro.co.uk/weather/index.htm

High Low Average
Temperature 71.4°F21.9°C 60.3°F15.7°C 65.1°F18.4°C
Dew Point 60.5°F15.8°C 53.4°F11.9°C 57.5°F14.2°C
Winds 9.2 mph 14.8 kmh Calm Calm 3.0 mph SW4.8 kmh SW
Wind Gusts 9.2 mph14.8 kmh -- 4.0 mph6.4 kmh
Humidity 85% 63% 77%
Pressure 29.83 in1010.2 mb 29.77 in1008.1 mb -
Precipitation 0.00 in0.0 mm - -
Hour Temp Dew Point Humidity Winds Wind Gusts Pressure Precip Precip Rate Daily Precip Total
12:19 AM 61.0°F16.1°C 53.4°F11.9°C 76% 2.2 mph SE3.5 kmh SE 2.2 mph3.5 kmh 29.82 in1009.8 mb 0.00 in0.0 mm 0.00 in0.0 mm 0.00 in0.0 mm
12:49 AM 60.8°F16.0°C 53.9°F12.2°C 78% 3.8 mph S6.1 kmh S 3.8 mph6.1 kmh 29.81 in1009.5 mb 0.00 in0.0 mm 0.00 in0.0 mm 0.00 in0.0 mm
01:19 AM 60.3°F15.7°C 54.4°F12.4°C 81% 3.1 mph W5.0 kmh W 3.1 mph5.0 kmh 29.80 in1009.1 mb 0.00 in0.0 mm 0.00 in0.0 mm 0.00 in0.0 mm
01:49 AM 60.3°F15.7°C 54.4°F12.4°C 81% 3.1 mph W5.0 kmh W 3.1 mph5.0 kmh 29.80 in1009.1 mb 0.00 in0.0 mm 0.00 in0.0 mm 0.00 in0.0 mm
02:19 AM 60.3°F15.7°C 54.4°F12.4°C 81% 3.1 mph W5.0 kmh W 3.1 mph5.0 kmh 29.80 in1009.1 mb 0.00 in0.0 mm 0.00 in0.0 mm 0.00 in0.0 mm
02:49 AM 60.3°F15.7°C 54.4°F12.4°C 81% 3.1 mph W5.0 kmh W 3.1 mph5.0 kmh 29.78 in1008.5 mb 0.00 in0.0 mm 0.00 in0.0 mm 0.00 in0.0 mm
03:19 AM 60.3°F15.7°C 54.4°F12.4°C 81% 3.1 mph W5.0 kmh W 3.1 mph5.0 kmh 29.79 in1008.8 mb 0.00 in0.0 mm 0.00 in0.0 mm 0.00 in0.0 mm
03:49 AM 60.3°F15.7°C 54.4°F12.4°C 81% 3.1 mph W5.0 kmh W 3.1 mph5.0 kmh 29.79 in1008.8 mb 0.00 in0.0 mm 0.00 in0.0 mm 0.00 in0.0 mm
04:19 AM 60.3°F15.7°C 54.4°F12.4°C 81% 3.1 mph W5.0 kmh W 3.1 mph5.0 kmh 29.79 in1008.8 mb 0.00 in0.0 mm 0.00 in0.0 mm 0.00 in0.0 mm
04:49 AM 60.3°F15.7°C 54.4°F12.4°C 81% 3.1 mph W5.0 kmh W 3.1 mph5.0 kmh 29.79 in1008.8 mb 0.00 in0.0 mm 0.00 in0.0 mm 0.00 in0.0 mm
05:19 AM 60.3°F15.7°C 54.4°F12.4°C 81% 3.1 mph W5.0 kmh W 3.1 mph5.0 kmh 29.79 in1008.8 mb 0.00 in0.0 mm 0.00 in0.0 mm 0.00 in0.0 mm
05:49 AM 60.3°F15.7°C 54.4°F12.4°C 81% 3.1 mph W5.0 kmh W 3.1 mph5.0 kmh 29.79 in1008.8 mb 0.00 in0.0 mm 0.00 in0.0 mm 0.00 in0.0 mm
06:19 AM 60.3°F15.7°C 54.4°F12.4°C 81% 3.1 mph W5.0 kmh W 3.1 mph5.0 kmh 29.80 in1009.1 mb 0.00 in0.0 mm 0.00 in0.0 mm 0.00 in0.0 mm
06:49 AM 60.3°F15.7°C 54.4°F12.4°C 81% 3.1 mph W5.0 kmh W 3.1 mph5.0 kmh 29.80 in1009.1 mb 0.00 in0.0 mm 0.00 in0.0 mm 0.00 in0.0 mm
07:19 AM 61.3°F16.3°C 56.1°F13.4°C 83% Calm Calm -- 29.80 in1009.1 mb 0.00 in0.0 mm 0.00 in0.0 mm 0.00 in0.0 mm
07:49 AM 62.1°F16.7°C 56.2°F13.4°C 81% 3.1 mph SW5.0 kmh SW 3.1 mph5.0 kmh 29.81 in1009.5 mb 0.00 in0.0 mm 0.00 in0.0 mm 0.00 in0.0 mm
08:19 AM 61.9°F16.6°C 55.6°F13.1°C 80% 1.6 mph E2.6 kmh E 1.6 mph2.6 kmh 29.81 in1009.5 mb 0.00 in0.0 mm 0.00 in0.0 mm 0.00 in0.0 mm
08:49 AM 61.9°F16.6°C 56.7°F13.7°C 83% 3.8 mph SW6.1 kmh SW 3.8 mph6.1 kmh 29.82 in1009.8 mb 0.00 in0.0 mm 0.00 in0.0 mm 0.00 in0.0 mm
09:19 AM 62.2°F16.8°C 57.7°F14.3°C 85% 3.1 mph SW5.0 kmh SW 3.1 mph5.0 kmh 29.83 in1010.2 mb 0.00 in0.0 mm 0.00 in0.0 mm 0.00 in0.0 mm
09:49 AM 63.5°F17.5°C 57.2°F14.0°C 80% 1.6 mph W2.6 kmh W 1.6 mph2.6 kmh 29.82 in1009.8 mb 0.00 in0.0 mm 0.00 in0.0 mm 0.00 in0.0 mm
10:19 AM 65.8°F18.8°C 56.6°F13.7°C 72% 5.4 mph S8.7 kmh S 5.4 mph8.7 kmh 29.83 in1010.2 mb 0.00 in0.0 mm 0.00 in0.0 mm 0.00 in0.0 mm
10:49 AM 69.3°F20.7°C 57.4°F14.1°C 66% 2.2 mph N3.5 kmh N 2.2 mph3.5 kmh 29.82 in1009.8 mb 0.00 in0.0 mm 0.00 in0.0 mm 0.00 in0.0 mm
11:19 AM 68.4°F20.2°C 56.1°F13.4°C 65% 3.1 mph S5.0 kmh S 3.1 mph5.0 kmh 29.82 in1009.8 mb 0.00 in0.0 mm 0.00 in0.0 mm 0.00 in0.0 mm
11:49 AM 68.4°F20.2°C 56.6°F13.7°C 66% 3.1 mph N5.0 kmh N 3.1 mph5.0 kmh 29.83 in1010.2 mb 0.00 in0.0 mm 0.00 in0.0 mm 0.00 in0.0 mm
12:19 PM 70.7°F21.5°C 57.9°F14.4°C 64% 3.8 mph S6.1 kmh S 3.8 mph6.1 kmh 29.83 in1010.2 mb 0.00 in0.0 mm 0.00 in0.0 mm 0.00 in0.0 mm
12:49 PM 71.4°F21.9°C 58.2°F14.6°C 63% 5.4 mph SE8.7 kmh SE 5.4 mph8.7 kmh 29.83 in1010.2 mb 0.00 in0.0 mm 0.00 in0.0 mm 0.00 in0.0 mm
01:19 PM 70.2°F21.2°C 57.8°F14.3°C 65% 4.5 mph SE7.2 kmh SE 4.5 mph7.2 kmh 29.83 in1010.2 mb 0.00 in0.0 mm 0.00 in0.0 mm 0.00 in0.0 mm
01:49 PM 69.1°F20.6°C 58.1°F14.5°C 68% 3.8 mph SW6.1 kmh SW 3.8 mph6.1 kmh 29.82 in1009.8 mb 0.00 in0.0 mm 0.00 in0.0 mm 0.00 in0.0 mm
02:19 PM 71.1°F21.7°C 58.7°F14.8°C 65% 4.5 mph SW7.2 kmh SW 4.5 mph7.2 kmh 29.82 in1009.8 mb 0.00 in0.0 mm 0.00 in0.0 mm 0.00 in0.0 mm
02:49 PM 71.1°F21.7°C 58.7°F14.8°C 65% 6.9 mph SW11.1 kmh SW 6.9 mph11.1 kmh 29.80 in1009.1 mb 0.00 in0.0 mm 0.00 in0.0 mm 0.00 in0.0 mm
03:19 PM 70.7°F21.5°C 59.2°F15.1°C 67% 3.8 mph W6.1 kmh W 3.8 mph6.1 kmh 29.80 in1009.1 mb 0.00 in0.0 mm 0.00 in0.0 mm 0.00 in0.0 mm
03:49 PM 70.0°F21.1°C 58.9°F14.9°C 68% 6.0 mph NW9.7 kmh NW 6.0 mph9.7 kmh 29.80 in1009.1 mb 0.00 in0.0 mm 0.00 in0.0 mm 0.00 in0.0 mm
04:19 PM 69.8°F21.0°C 59.2°F15.1°C 69% 2.2 mph SW3.5 kmh SW 2.2 mph3.5 kmh 29.80 in1009.1 mb 0.00 in0.0 mm 0.00 in0.0 mm 0.00 in0.0 mm
04:49 PM 68.5°F20.3°C 58.8°F14.9°C 71% 4.5 mph W7.2 kmh W 4.5 mph7.2 kmh 29.80 in1009.1 mb 0.00 in0.0 mm 0.00 in0.0 mm 0.00 in0.0 mm
05:19 PM 69.8°F21.0°C 60.0°F15.6°C 71% 6.0 mph S9.7 kmh S 6.0 mph9.7 kmh 29.80 in1009.1 mb 0.00 in0.0 mm 0.00 in0.0 mm 0.00 in0.0 mm
05:49 PM 69.3°F20.7°C 59.1°F15.1°C 70% 4.5 mph SW7.2 kmh SW 4.5 mph7.2 kmh 29.80 in1009.1 mb 0.00 in0.0 mm 0.00 in0.0 mm 0.00 in0.0 mm
06:19 PM 67.8°F19.9°C 58.5°F14.7°C 72% 5.4 mph S8.7 kmh S 5.4 mph8.7 kmh 29.80 in1009.1 mb 0.00 in0.0 mm 0.00 in0.0 mm 0.00 in0.0 mm
06:49 PM 66.9°F19.4°C 58.4°F14.7°C 74% 9.2 mph SW14.8 kmh SW 9.2 mph14.8 kmh 29.80 in1009.1 mb 0.00 in0.0 mm 0.00 in0.0 mm 0.00 in0.0 mm
07:19 PM 65.8°F18.8°C 58.4°F14.7°C 77% 5.4 mph W8.7 kmh W 5.4 mph8.7 kmh 29.79 in1008.8 mb 0.00 in0.0 mm 0.00 in0.0 mm 0.00 in0.0 mm
07:49 PM 65.5°F18.6°C 58.8°F14.9°C 79% 2.2 mph S3.5 kmh S 2.2 mph3.5 kmh 29.79 in1008.8 mb 0.00 in0.0 mm 0.00 in0.0 mm 0.00 in0.0 mm
08:19 PM 65.3°F18.5°C 59.3°F15.2°C 81% 3.8 mph SE6.1 kmh SE 3.8 mph6.1 kmh 29.80 in1009.1 mb 0.00 in0.0 mm 0.00 in0.0 mm 0.00 in0.0 mm
08:49 PM 65.1°F18.4°C 59.5°F15.3°C 82% 2.2 mph S3.5 kmh S 2.2 mph3.5 kmh 29.81 in1009.5 mb 0.00 in0.0 mm 0.00 in0.0 mm 0.00 in0.0 mm
09:10 PM 65.3°F18.5°C 60.4°F15.8°C 84% Calm Calm -- 29.77 in1008.1 mb 0.00 in0.0 mm 0.00 in0.0 mm 0.00 in0.0 mm
09:20 PM 65.3°F18.5°C 60.4°F15.8°C 84% Calm Calm -- 29.77 in1008.1 mb 0.00 in0.0 mm 0.00 in0.0 mm 0.00 in0.0 mm
09:30 PM 65.5°F18.6°C 60.5°F15.8°C 84% 0.9 mph S1.4 kmh S 1.6 mph2.6 kmh 29.77 in1008.1 mb 0.00 in0.0 mm 0.00 in0.0 mm 0.00 in0.0 mm
09:40 PM 65.5°F18.6°C 60.2°F15.7°C 83% Calm Calm 0.7 mph1.1 kmh 29.78 in1008.5 mb 0.00 in0.0 mm 0.00 in0.0 mm 0.00 in0.0 mm
09:50 PM 65.7°F18.7°C 60.4°F15.8°C 83% 1.6 mph WSW2.6 kmh WSW 3.1 mph5.0 kmh 29.77 in1008.1 mb 0.00 in0.0 mm 0.00 in0.0 mm 0.00 in0.0 mm
10:00 PM 65.7°F18.7°C 60.0°F15.6°C 82% 1.6 mph WSW2.6 kmh WSW 3.1 mph5.0 kmh 29.78 in1008.5 mb 0.00 in0.0 mm 0.00 in0.0 mm 0.00 in0.0 mm
10:10 PM 65.7°F18.7°C 60.0°F15.6°C 82% 0.4 mph NW0.6 kmh NW 2.2 mph3.5 kmh 29.77 in1008.1 mb 0.00 in0.0 mm 0.00 in0.0 mm 0.00 in0.0 mm
10:20 PM 65.7°F18.7°C 59.7°F15.4°C 81% 0.1 mph W0.2 kmh W 1.6 mph2.6 kmh 29.78 in1008.5 mb 0.00 in0.0 mm 0.00 in0.0 mm 0.00 in0.0 mm
10:30 PM 65.7°F18.7°C 59.3°F15.2°C 80% 1.2 mph NW1.9 kmh NW 3.8 mph6.1 kmh 29.78 in1008.5 mb 0.00 in0.0 mm 0.00 in0.0 mm 0.00 in0.0 mm
10:40 PM 65.5°F18.6°C 59.2°F15.1°C 80% 6.0 mph NW9.7 kmh NW 8.3 mph13.4 kmh 29.77 in1008.1 mb 0.00 in0.0 mm 0.00 in0.0 mm 0.00 in0.0 mm
10:50 PM 65.3°F18.5°C 59.0°F15.0°C 80% 6.2 mph WNW10.0 kmh WNW 7.6 mph12.2 kmh 29.78 in1008.5 mb 0.00 in0.0 mm 0.00 in0.0 mm 0.00 in0.0 mm
11:00 PM 65.1°F18.4°C 58.5°F14.7°C 79% 4.1 mph NW6.6 kmh NW 6.0 mph9.7 kmh 29.78 in1008.5 mb 0.00 in0.0 mm 0.00 in0.0 mm 0.00 in0.0 mm
11:10 PM 65.1°F18.4°C 58.5°F14.7°C 79% 2.9 mph WNW4.7 kmh WNW 5.4 mph8.7 kmh 29.77 in1008.1 mb 0.00 in0.0 mm 0.00 in0.0 mm 0.00 in0.0 mm
11:20 PM 64.8°F18.2°C 58.1°F14.5°C 79% 2.9 mph NW4.7 kmh NW 5.4 mph8.7 kmh 29.78 in1008.5 mb 0.00 in0.0 mm 0.00 in0.0 mm 0.00 in0.0 mm
11:30 PM 64.8°F18.2°C 58.1°F14.5°C 79% 2.7 mph WSW4.3 kmh WSW 6.9 mph11.1 kmh 29.78 in1008.5 mb 0.00 in0.0 mm 0.00 in0.0 mm 0.00 in0.0 mm
11:40 PM 64.6°F18.1°C 58.3°F14.6°C 80% 0.6 mph S1.0 kmh S 2.2 mph3.5 kmh 29.78 in1008.5 mb 0.00 in0.0 mm 0.00 in0.0 mm 0.00 in0.0 mm
11:50 PM 64.6°F18.1°C 58.3°F14.6°C 80% 0.1 mph S0.2 kmh S 1.6 mph2.6 kmh 29.79 in1008.8 mb 0.00 in0.0 mm 0.00 in0.0 mm 0.00 in0.0 mm